Quesnel Airport
CYQZ : now visible

Airfield :











YOU CAN JOIN US ON...

 
LOGIN :

Register | Disclaimer

   EN    FR    IT 

 









Legend :    VFR   Marginal VFR   IFR   Intensive IFR   Very Intensive IFR
Visi :
Ceiling :
>= 8 km
>= 3000ft
5 to 8 km
1000 to 3000 ft
1500m to 5 km
500 to 1000 ft
800 to 1500m
200 to 500 ft
< 800m
< 200 ft
Symbols :   Thunderstorms  Fog  Heavy snow  Heavy precipitations  Wind > 20 kt






- Airport Elevation : 1789 ft
- IATA code : YQZ


CYQZ - Quesnel

CURRENT METAR :
  • 020300Z AUTO 00000KT 9SM OVC007 M27/M30 A2997 RMK SLP225

EXPIRED METARs :
  • 020246Z AUTO 00000KT 5SM BR OVC007 M26/M29 A2997 RMK SLP222
  • 020221Z AUTO 00000KT 9SM BKN007 M26/M28 A2997 RMK SLP219
  • 020210Z AUTO 00000KT 9SM -SN BKN007 M26/M28 A2996 RMK SLP218
  • 020128Z AUTO 00000KT 9SM SCT008 M26/M29 A2996 RMK SLP217
  • 020100Z AUTO 00000KT 9SM OVC008 M25/M27 A2995 RMK SLP215
  • 020042Z AUTO 00000KT 9SM -SN BKN008 M25/M27 A2995 RMK SLP213
  • 020033Z AUTO 00000KT 9SM FEW008 M24/M27 A2995 RMK SLP212

TAF TAF CYQZ
Valid from the 02 at 01:00 until the 02 at 06:00 UTC


020040Z 0201/0206 VRB03KT P6SM FEW008
TEMPO 0201/0206 2SM -SN HZ BKN008 RMK FCST BASED ON AUTO OBS. NXT FCST BY 021200Z
CZVR FIR / North America



MET'MAP, your aeronautical weather chart ! - Copyright ORBIFLY December 2007 - Disclaimer

ORBIFLY MET'MAP TEAM :

Programming & Development : Alexandra Zaïnal
Original concept : Baudouin d'Aumeries
Technical & hardware support : Manuel Goepfert
Assistance : Marc-Olivier Méhu




SOURCES & CREDITS :

   NOAA       Earth
Advisory